sensor_id;sensor_type;location;lat;lon;timestamp;P1;durP1;ratioP1;P2;durP2;ratioP2
80758;SDS011;70150;45.582;10.178;2023-06-14T00:00:36;11.90;;;7.40;;
80758;SDS011;70150;45.582;10.178;2023-06-14T00:03:06;10.73;;;7.22;;
80758;SDS011;70150;45.582;10.178;2023-06-14T00:05:34;9.18;;;6.47;;
80758;SDS011;70150;45.582;10.178;2023-06-14T00:08:05;10.15;;;6.72;;
80758;SDS011;70150;45.582;10.178;2023-06-14T00:10:33;11.32;;;7.32;;
80758;SDS011;70150;45.582;10.178;2023-06-14T00:13:01;13.20;;;7.90;;
80758;SDS011;70150;45.582;10.178;2023-06-14T00:15:30;8.73;;;5.97;;
80758;SDS011;70150;45.582;10.178;2023-06-14T00:17:56;7.70;;;5.30;;
80758;SDS011;70150;45.582;10.178;2023-06-14T00:20:26;10.07;;;5.43;;
80758;SDS011;70150;45.582;10.178;2023-06-14T00:22:52;6.90;;;4.72;;
80758;SDS011;70150;45.582;10.178;2023-06-14T00:25:20;8.60;;;4.93;;
80758;SDS011;70150;45.582;10.178;2023-06-14T00:27:50;8.27;;;5.05;;
80758;SDS011;70150;45.582;10.178;2023-06-14T00:30:15;8.15;;;4.32;;
80758;SDS011;70150;45.582;10.178;2023-06-14T00:32:41;7.55;;;4.70;;
80758;SDS011;70150;45.582;10.178;2023-06-14T00:35:08;8.02;;;5.00;;
80758;SDS011;70150;45.582;10.178;2023-06-14T00:37:34;11.55;;;5.20;;
80758;SDS011;70150;45.582;10.178;2023-06-14T00:40:00;6.85;;;5.20;;
80758;SDS011;70150;45.582;10.178;2023-06-14T00:42:26;6.93;;;5.38;;
80758;SDS011;70150;45.582;10.178;2023-06-14T00:44:53;7.45;;;4.90;;
80758;SDS011;70150;45.582;10.178;2023-06-14T00:47:19;8.35;;;5.13;;
80758;SDS011;70150;45.582;10.178;2023-06-14T00:49:46;8.20;;;5.18;;
80758;SDS011;70150;45.582;10.178;2023-06-14T00:52:14;7.72;;;4.80;;
80758;SDS011;70150;45.582;10.178;2023-06-14T00:54:41;7.18;;;4.70;;
80758;SDS011;70150;45.582;10.178;2023-06-14T00:57:07;8.10;;;5.15;;
80758;SDS011;70150;45.582;10.178;2023-06-14T00:59:35;7.43;;;4.43;;
80758;SDS011;70150;45.582;10.178;2023-06-14T01:02:07;7.85;;;4.47;;
80758;SDS011;70150;45.582;10.178;2023-06-14T01:04:33;10.50;;;5.28;;
80758;SDS011;70150;45.582;10.178;2023-06-14T01:14:41;8.05;;;4.30;;
80758;SDS011;70150;45.582;10.178;2023-06-14T01:17:09;5.65;;;4.25;;
80758;SDS011;70150;45.582;10.178;2023-06-14T01:19:42;9.13;;;4.50;;
80758;SDS011;70150;45.582;10.178;2023-06-14T01:22:09;5.65;;;4.05;;
80758;SDS011;70150;45.582;10.178;2023-06-14T01:24:35;5.40;;;3.88;;
80758;SDS011;70150;45.582;10.178;2023-06-14T01:27:02;5.45;;;3.60;;
80758;SDS011;70150;45.582;10.178;2023-06-14T01:31:58;5.47;;;3.88;;
80758;SDS011;70150;45.582;10.178;2023-06-14T01:34:25;6.15;;;3.80;;
80758;SDS011;70150;45.582;10.178;2023-06-14T01:36:54;8.32;;;3.53;;
80758;SDS011;70150;45.582;10.178;2023-06-14T01:39:20;5.90;;;3.50;;
80758;SDS011;70150;45.582;10.178;2023-06-14T01:41:47;5.45;;;3.47;;
80758;SDS011;70150;45.582;10.178;2023-06-14T01:44:17;4.95;;;3.55;;
80758;SDS011;70150;45.582;10.178;2023-06-14T01:46:45;6.85;;;3.42;;
80758;SDS011;70150;45.582;10.178;2023-06-14T01:49:13;7.20;;;3.53;;
80758;SDS011;70150;45.582;10.178;2023-06-14T01:51:41;10.57;;;3.47;;
80758;SDS011;70150;45.582;10.178;2023-06-14T01:54:06;6.53;;;3.33;;
80758;SDS011;70150;45.582;10.178;2023-06-14T01:56:32;5.03;;;3.30;;
80758;SDS011;70150;45.582;10.178;2023-06-14T01:59:00;4.93;;;3.50;;
80758;SDS011;70150;45.582;10.178;2023-06-14T02:01:25;7.63;;;3.50;;
80758;SDS011;70150;45.582;10.178;2023-06-14T02:03:51;9.50;;;3.92;;
80758;SDS011;70150;45.582;10.178;2023-06-14T02:06:19;6.43;;;4.10;;
80758;SDS011;70150;45.582;10.178;2023-06-14T02:08:45;5.35;;;3.67;;
80758;SDS011;70150;45.582;10.178;2023-06-14T02:11:10;5.03;;;3.60;;
80758;SDS011;70150;45.582;10.178;2023-06-14T02:13:36;6.10;;;4.68;;
80758;SDS011;70150;45.582;10.178;2023-06-14T02:16:01;8.73;;;5.30;;
80758;SDS011;70150;45.582;10.178;2023-06-14T02:18:27;10.27;;;5.25;;
80758;SDS011;70150;45.582;10.178;2023-06-14T02:20:53;9.35;;;4.80;;
80758;SDS011;70150;45.582;10.178;2023-06-14T02:23:18;6.78;;;4.03;;
80758;SDS011;70150;45.582;10.178;2023-06-14T02:25:46;7.13;;;4.03;;
80758;SDS011;70150;45.582;10.178;2023-06-14T02:28:12;5.85;;;3.47;;
80758;SDS011;70150;45.582;10.178;2023-06-14T02:30:38;5.53;;;3.15;;
80758;SDS011;70150;45.582;10.178;2023-06-14T02:33:04;6.30;;;3.88;;
80758;SDS011;70150;45.582;10.178;2023-06-14T02:35:30;6.88;;;3.40;;
80758;SDS011;70150;45.582;10.178;2023-06-14T02:37:55;7.38;;;3.25;;
80758;SDS011;70150;45.582;10.178;2023-06-14T02:40:21;5.28;;;2.67;;
80758;SDS011;70150;45.582;10.178;2023-06-14T02:42:47;3.80;;;2.60;;
80758;SDS011;70150;45.582;10.178;2023-06-14T02:45:13;4.43;;;2.92;;
80758;SDS011;70150;45.582;10.178;2023-06-14T02:47:40;4.70;;;2.88;;
80758;SDS011;70150;45.582;10.178;2023-06-14T02:50:06;4.65;;;2.80;;
80758;SDS011;70150;45.582;10.178;2023-06-14T02:52:33;5.18;;;2.67;;
80758;SDS011;70150;45.582;10.178;2023-06-14T02:54:58;4.35;;;2.70;;
80758;SDS011;70150;45.582;10.178;2023-06-14T02:57:24;5.13;;;2.50;;
80758;SDS011;70150;45.582;10.178;2023-06-14T02:59:50;4.28;;;3.10;;
80758;SDS011;70150;45.582;10.178;2023-06-14T03:02:15;3.67;;;2.72;;
80758;SDS011;70150;45.582;10.178;2023-06-14T03:04:41;5.00;;;3.17;;
80758;SDS011;70150;45.582;10.178;2023-06-14T03:07:09;4.53;;;2.67;;
80758;SDS011;70150;45.582;10.178;2023-06-14T03:09:36;5.50;;;2.70;;
80758;SDS011;70150;45.582;10.178;2023-06-14T03:14:28;4.30;;;2.63;;
80758;SDS011;70150;45.582;10.178;2023-06-14T03:16:58;3.97;;;2.85;;
80758;SDS011;70150;45.582;10.178;2023-06-14T03:19:23;5.35;;;2.67;;
80758;SDS011;70150;45.582;10.178;2023-06-14T03:21:50;4.43;;;2.92;;
80758;SDS011;70150;45.582;10.178;2023-06-14T03:24:16;4.45;;;2.42;;
80758;SDS011;70150;45.582;10.178;2023-06-14T03:26:42;5.47;;;2.50;;
80758;SDS011;70150;45.582;10.178;2023-06-14T03:29:07;3.65;;;2.35;;
80758;SDS011;70150;45.582;10.178;2023-06-14T03:31:34;4.07;;;2.58;;
80758;SDS011;70150;45.582;10.178;2023-06-14T03:34:00;4.20;;;2.70;;
80758;SDS011;70150;45.582;10.178;2023-06-14T03:36:26;3.75;;;2.75;;
80758;SDS011;70150;45.582;10.178;2023-06-14T03:38:53;2.95;;;2.65;;
80758;SDS011;70150;45.582;10.178;2023-06-14T03:41:19;3.33;;;2.30;;
80758;SDS011;70150;45.582;10.178;2023-06-14T03:43:45;4.30;;;2.78;;
80758;SDS011;70150;45.582;10.178;2023-06-14T03:46:12;4.18;;;2.58;;
80758;SDS011;70150;45.582;10.178;2023-06-14T03:48:38;6.03;;;2.90;;
80758;SDS011;70150;45.582;10.178;2023-06-14T03:51:04;5.40;;;2.58;;
80758;SDS011;70150;45.582;10.178;2023-06-14T03:53:30;4.60;;;2.95;;
80758;SDS011;70150;45.582;10.178;2023-06-14T03:55:55;4.75;;;2.85;;
80758;SDS011;70150;45.582;10.178;2023-06-14T03:58:22;5.13;;;3.10;;
80758;SDS011;70150;45.582;10.178;2023-06-14T04:00:48;5.22;;;2.90;;
80758;SDS011;70150;45.582;10.178;2023-06-14T04:03:13;4.55;;;2.90;;
80758;SDS011;70150;45.582;10.178;2023-06-14T04:05:40;5.40;;;2.92;;
80758;SDS011;70150;45.582;10.178;2023-06-14T04:08:07;5.63;;;3.00;;
80758;SDS011;70150;45.582;10.178;2023-06-14T04:10:34;4.93;;;2.60;;
80758;SDS011;70150;45.582;10.178;2023-06-14T04:13:00;5.13;;;3.10;;
80758;SDS011;70150;45.582;10.178;2023-06-14T04:15:25;5.47;;;3.00;;
80758;SDS011;70150;45.582;10.178;2023-06-14T04:17:53;5.75;;;3.13;;
80758;SDS011;70150;45.582;10.178;2023-06-14T04:20:22;6.82;;;3.20;;
80758;SDS011;70150;45.582;10.178;2023-06-14T04:22:50;4.80;;;3.33;;
80758;SDS011;70150;45.582;10.178;2023-06-14T04:25:16;6.97;;;3.47;;
80758;SDS011;70150;45.582;10.178;2023-06-14T04:27:42;6.00;;;3.00;;
80758;SDS011;70150;45.582;10.178;2023-06-14T04:30:07;5.78;;;3.45;;
80758;SDS011;70150;45.582;10.178;2023-06-14T04:32:33;6.28;;;3.40;;
80758;SDS011;70150;45.582;10.178;2023-06-14T04:35:05;5.28;;;3.35;;
80758;SDS011;70150;45.582;10.178;2023-06-14T04:37:32;4.18;;;2.88;;
80758;SDS011;70150;45.582;10.178;2023-06-14T04:39:58;5.78;;;2.72;;
80758;SDS011;70150;45.582;10.178;2023-06-14T04:42:28;5.22;;;2.97;;
80758;SDS011;70150;45.582;10.178;2023-06-14T04:44:56;4.85;;;2.65;;
80758;SDS011;70150;45.582;10.178;2023-06-14T04:47:22;5.05;;;2.92;;
80758;SDS011;70150;45.582;10.178;2023-06-14T04:49:50;3.65;;;3.08;;
80758;SDS011;70150;45.582;10.178;2023-06-14T04:52:17;4.50;;;2.80;;
80758;SDS011;70150;45.582;10.178;2023-06-14T04:54:46;5.03;;;3.30;;
80758;SDS011;70150;45.582;10.178;2023-06-14T04:57:12;5.80;;;3.40;;
80758;SDS011;70150;45.582;10.178;2023-06-14T04:59:42;5.00;;;3.25;;
80758;SDS011;70150;45.582;10.178;2023-06-14T05:02:09;5.53;;;3.60;;
80758;SDS011;70150;45.582;10.178;2023-06-14T05:04:35;6.28;;;3.35;;
80758;SDS011;70150;45.582;10.178;2023-06-14T05:07:06;6.07;;;3.65;;
80758;SDS011;70150;45.582;10.178;2023-06-14T05:09:34;5.75;;;3.63;;
80758;SDS011;70150;45.582;10.178;2023-06-14T05:12:00;4.40;;;3.35;;
80758;SDS011;70150;45.582;10.178;2023-06-14T05:14:27;4.82;;;2.92;;
80758;SDS011;70150;45.582;10.178;2023-06-14T05:16:55;4.20;;;2.95;;
80758;SDS011;70150;45.582;10.178;2023-06-14T05:19:22;4.97;;;2.95;;
80758;SDS011;70150;45.582;10.178;2023-06-14T05:21:47;5.90;;;3.00;;
80758;SDS011;70150;45.582;10.178;2023-06-14T05:24:14;4.68;;;3.03;;
80758;SDS011;70150;45.582;10.178;2023-06-14T05:26:40;6.15;;;3.42;;
80758;SDS011;70150;45.582;10.178;2023-06-14T05:29:06;4.57;;;3.28;;
80758;SDS011;70150;45.582;10.178;2023-06-14T05:31:34;5.32;;;3.10;;
80758;SDS011;70150;45.582;10.178;2023-06-14T05:33:59;4.88;;;2.70;;
80758;SDS011;70150;45.582;10.178;2023-06-14T05:36:25;3.78;;;2.53;;
80758;SDS011;70150;45.582;10.178;2023-06-14T05:38:52;4.00;;;2.80;;
80758;SDS011;70150;45.582;10.178;2023-06-14T05:41:21;4.03;;;2.55;;
80758;SDS011;70150;45.582;10.178;2023-06-14T05:43:47;7.22;;;3.28;;
80758;SDS011;70150;45.582;10.178;2023-06-14T05:46:12;5.65;;;2.80;;
80758;SDS011;70150;45.582;10.178;2023-06-14T05:48:38;7.03;;;2.58;;
80758;SDS011;70150;45.582;10.178;2023-06-14T05:51:04;3.70;;;2.50;;
80758;SDS011;70150;45.582;10.178;2023-06-14T05:53:29;5.38;;;2.55;;
80758;SDS011;70150;45.582;10.178;2023-06-14T05:55:57;3.70;;;2.70;;
80758;SDS011;70150;45.582;10.178;2023-06-14T05:58:23;3.33;;;2.42;;
80758;SDS011;70150;45.582;10.178;2023-06-14T06:00:48;4.72;;;2.58;;
80758;SDS011;70150;45.582;10.178;2023-06-14T06:03:14;5.53;;;3.00;;
80758;SDS011;70150;45.582;10.178;2023-06-14T06:05:41;6.32;;;3.00;;
80758;SDS011;70150;45.582;10.178;2023-06-14T06:08:07;5.70;;;2.95;;
80758;SDS011;70150;45.582;10.178;2023-06-14T06:10:33;6.97;;;3.03;;
80758;SDS011;70150;45.582;10.178;2023-06-14T06:12:58;4.35;;;2.75;;
80758;SDS011;70150;45.582;10.178;2023-06-14T06:15:24;7.38;;;3.35;;
80758;SDS011;70150;45.582;10.178;2023-06-14T06:17:50;10.32;;;2.97;;
80758;SDS011;70150;45.582;10.178;2023-06-14T06:20:18;5.10;;;3.00;;
80758;SDS011;70150;45.582;10.178;2023-06-14T06:22:43;5.00;;;3.08;;
80758;SDS011;70150;45.582;10.178;2023-06-14T06:25:09;6.72;;;3.05;;
80758;SDS011;70150;45.582;10.178;2023-06-14T06:27:35;5.95;;;2.90;;
80758;SDS011;70150;45.582;10.178;2023-06-14T06:30:02;4.70;;;3.15;;
80758;SDS011;70150;45.582;10.178;2023-06-14T06:32:28;6.70;;;2.83;;
80758;SDS011;70150;45.582;10.178;2023-06-14T06:34:54;9.48;;;2.97;;
80758;SDS011;70150;45.582;10.178;2023-06-14T06:37:19;7.13;;;3.15;;
80758;SDS011;70150;45.582;10.178;2023-06-14T06:39:45;7.00;;;2.70;;
80758;SDS011;70150;45.582;10.178;2023-06-14T06:42:11;5.78;;;3.15;;
80758;SDS011;70150;45.582;10.178;2023-06-14T06:44:37;8.13;;;3.10;;
80758;SDS011;70150;45.582;10.178;2023-06-14T06:47:03;6.22;;;3.13;;
80758;SDS011;70150;45.582;10.178;2023-06-14T06:49:29;9.93;;;3.03;;
80758;SDS011;70150;45.582;10.178;2023-06-14T06:54:24;7.60;;;3.05;;
80758;SDS011;70150;45.582;10.178;2023-06-14T06:56:50;7.38;;;2.88;;
80758;SDS011;70150;45.582;10.178;2023-06-14T06:59:15;9.73;;;3.50;;
80758;SDS011;70150;45.582;10.178;2023-06-14T07:01:41;9.15;;;3.05;;
80758;SDS011;70150;45.582;10.178;2023-06-14T07:04:09;5.70;;;3.10;;
80758;SDS011;70150;45.582;10.178;2023-06-14T07:06:35;4.32;;;3.03;;
80758;SDS011;70150;45.582;10.178;2023-06-14T07:09:01;6.43;;;3.50;;
80758;SDS011;70150;45.582;10.178;2023-06-14T07:11:30;8.70;;;3.70;;
80758;SDS011;70150;45.582;10.178;2023-06-14T07:13:56;7.40;;;4.10;;
80758;SDS011;70150;45.582;10.178;2023-06-14T07:16:21;7.30;;;4.13;;
80758;SDS011;70150;45.582;10.178;2023-06-14T07:18:47;8.48;;;4.32;;
80758;SDS011;70150;45.582;10.178;2023-06-14T07:21:13;8.60;;;4.88;;
80758;SDS011;70150;45.582;10.178;2023-06-14T07:23:38;7.45;;;4.28;;
80758;SDS011;70150;45.582;10.178;2023-06-14T07:26:04;5.95;;;3.85;;
80758;SDS011;70150;45.582;10.178;2023-06-14T07:28:30;10.02;;;4.70;;
80758;SDS011;70150;45.582;10.178;2023-06-14T07:30:55;6.68;;;3.88;;
80758;SDS011;70150;45.582;10.178;2023-06-14T07:33:21;5.78;;;4.30;;
80758;SDS011;70150;45.582;10.178;2023-06-14T07:35:46;5.70;;;3.20;;
80758;SDS011;70150;45.582;10.178;2023-06-14T07:38:13;6.07;;;3.13;;
80758;SDS011;70150;45.582;10.178;2023-06-14T07:40:39;7.15;;;3.70;;
80758;SDS011;70150;45.582;10.178;2023-06-14T07:43:04;4.72;;;3.00;;
80758;SDS011;70150;45.582;10.178;2023-06-14T07:45:30;8.70;;;3.20;;
80758;SDS011;70150;45.582;10.178;2023-06-14T07:47:56;4.53;;;2.70;;
80758;SDS011;70150;45.582;10.178;2023-06-14T07:50:21;8.15;;;3.45;;
80758;SDS011;70150;45.582;10.178;2023-06-14T07:52:47;3.92;;;3.05;;
80758;SDS011;70150;45.582;10.178;2023-06-14T07:55:14;7.15;;;2.97;;
80758;SDS011;70150;45.582;10.178;2023-06-14T07:57:40;4.90;;;3.10;;
80758;SDS011;70150;45.582;10.178;2023-06-14T08:00:06;6.45;;;3.30;;
80758;SDS011;70150;45.582;10.178;2023-06-14T08:02:32;8.10;;;3.42;;
80758;SDS011;70150;45.582;10.178;2023-06-14T08:04:58;8.15;;;3.10;;
80758;SDS011;70150;45.582;10.178;2023-06-14T08:07:23;6.05;;;3.72;;
80758;SDS011;70150;45.582;10.178;2023-06-14T08:09:49;7.25;;;3.60;;
80758;SDS011;70150;45.582;10.178;2023-06-14T08:12:15;4.40;;;3.22;;
80758;SDS011;70150;45.582;10.178;2023-06-14T08:14:41;7.63;;;4.38;;
80758;SDS011;70150;45.582;10.178;2023-06-14T08:17:07;7.93;;;3.58;;
80758;SDS011;70150;45.582;10.178;2023-06-14T08:19:33;6.47;;;3.90;;
80758;SDS011;70150;45.582;10.178;2023-06-14T08:21:59;7.65;;;4.40;;
80758;SDS011;70150;45.582;10.178;2023-06-14T08:24:25;6.60;;;4.20;;
80758;SDS011;70150;45.582;10.178;2023-06-14T08:26:52;9.45;;;4.00;;
80758;SDS011;70150;45.582;10.178;2023-06-14T08:29:18;8.32;;;3.78;;
80758;SDS011;70150;45.582;10.178;2023-06-14T08:31:44;6.05;;;3.72;;
80758;SDS011;70150;45.582;10.178;2023-06-14T08:34:10;7.78;;;4.45;;
80758;SDS011;70150;45.582;10.178;2023-06-14T08:36:39;7.15;;;4.20;;
80758;SDS011;70150;45.582;10.178;2023-06-14T08:39:04;8.40;;;3.95;;
80758;SDS011;70150;45.582;10.178;2023-06-14T08:41:30;6.22;;;3.88;;
80758;SDS011;70150;45.582;10.178;2023-06-14T08:43:56;6.97;;;3.97;;
80758;SDS011;70150;45.582;10.178;2023-06-14T08:46:22;7.38;;;3.80;;
80758;SDS011;70150;45.582;10.178;2023-06-14T08:48:52;5.75;;;3.78;;
80758;SDS011;70150;45.582;10.178;2023-06-14T08:51:22;5.30;;;3.67;;
80758;SDS011;70150;45.582;10.178;2023-06-14T08:53:52;5.85;;;3.70;;
80758;SDS011;70150;45.582;10.178;2023-06-14T08:56:23;8.75;;;4.30;;
80758;SDS011;70150;45.582;10.178;2023-06-14T08:58:51;6.70;;;3.47;;
80758;SDS011;70150;45.582;10.178;2023-06-14T09:01:17;7.22;;;3.55;;
80758;SDS011;70150;45.582;10.178;2023-06-14T09:06:10;7.63;;;3.72;;
80758;SDS011;70150;45.582;10.178;2023-06-14T09:11:10;7.93;;;3.85;;
80758;SDS011;70150;45.582;10.178;2023-06-14T09:13:37;5.70;;;3.78;;
80758;SDS011;70150;45.582;10.178;2023-06-14T09:16:03;5.35;;;3.55;;
80758;SDS011;70150;45.582;10.178;2023-06-14T09:21:00;5.57;;;4.13;;
80758;SDS011;70150;45.582;10.178;2023-06-14T09:23:25;8.60;;;3.83;;
80758;SDS011;70150;45.582;10.178;2023-06-14T09:25:51;4.10;;;3.03;;
80758;SDS011;70150;45.582;10.178;2023-06-14T09:28:16;7.38;;;3.50;;
80758;SDS011;70150;45.582;10.178;2023-06-14T09:30:42;6.53;;;3.50;;
80758;SDS011;70150;45.582;10.178;2023-06-14T09:33:08;7.93;;;4.18;;
80758;SDS011;70150;45.582;10.178;2023-06-14T09:35:33;5.25;;;3.70;;
80758;SDS011;70150;45.582;10.178;2023-06-14T09:37:59;6.47;;;3.70;;
80758;SDS011;70150;45.582;10.178;2023-06-14T09:40:26;7.18;;;3.72;;
80758;SDS011;70150;45.582;10.178;2023-06-14T09:42:51;7.78;;;4.57;;
80758;SDS011;70150;45.582;10.178;2023-06-14T09:45:17;8.05;;;3.78;;
80758;SDS011;70150;45.582;10.178;2023-06-14T09:47:48;5.65;;;4.03;;
80758;SDS011;70150;45.582;10.178;2023-06-14T09:50:14;5.22;;;3.55;;
80758;SDS011;70150;45.582;10.178;2023-06-14T09:52:40;6.82;;;4.30;;
80758;SDS011;70150;45.582;10.178;2023-06-14T09:55:12;8.40;;;4.18;;
80758;SDS011;70150;45.582;10.178;2023-06-14T09:57:40;8.20;;;4.68;;
80758;SDS011;70150;45.582;10.178;2023-06-14T10:00:08;8.02;;;4.60;;
80758;SDS011;70150;45.582;10.178;2023-06-14T10:02:36;6.57;;;3.92;;
80758;SDS011;70150;45.582;10.178;2023-06-14T10:05:05;6.40;;;4.32;;
80758;SDS011;70150;45.582;10.178;2023-06-14T10:10:07;7.70;;;4.05;;
80758;SDS011;70150;45.582;10.178;2023-06-14T10:12:34;7.53;;;4.28;;
80758;SDS011;70150;45.582;10.178;2023-06-14T10:14:59;7.80;;;3.78;;
80758;SDS011;70150;45.582;10.178;2023-06-14T10:22:33;8.50;;;3.70;;
80758;SDS011;70150;45.582;10.178;2023-06-14T10:25:06;6.85;;;4.38;;
80758;SDS011;70150;45.582;10.178;2023-06-14T10:27:37;6.60;;;4.10;;
80758;SDS011;70150;45.582;10.178;2023-06-14T10:30:03;10.40;;;4.50;;
80758;SDS011;70150;45.582;10.178;2023-06-14T10:32:31;6.55;;;4.57;;
80758;SDS011;70150;45.582;10.178;2023-06-14T10:37:29;10.07;;;4.68;;
80758;SDS011;70150;45.582;10.178;2023-06-14T10:39:55;10.38;;;5.68;;
80758;SDS011;70150;45.582;10.178;2023-06-14T10:42:21;9.80;;;6.18;;
80758;SDS011;70150;45.582;10.178;2023-06-14T10:49:51;8.60;;;4.97;;
80758;SDS011;70150;45.582;10.178;2023-06-14T10:52:20;11.07;;;5.40;;
80758;SDS011;70150;45.582;10.178;2023-06-14T10:57:20;9.63;;;4.65;;
80758;SDS011;70150;45.582;10.178;2023-06-14T10:59:46;10.32;;;5.20;;
80758;SDS011;70150;45.582;10.178;2023-06-14T11:04:52;12.27;;;5.50;;
80758;SDS011;70150;45.582;10.178;2023-06-14T11:12:16;8.50;;;3.70;;
80758;SDS011;70150;45.582;10.178;2023-06-14T11:14:45;7.75;;;3.67;;
80758;SDS011;70150;45.582;10.178;2023-06-14T11:17:12;6.78;;;3.67;;
80758;SDS011;70150;45.582;10.178;2023-06-14T11:19:38;6.30;;;3.78;;
80758;SDS011;70150;45.582;10.178;2023-06-14T11:22:04;8.27;;;3.72;;
80758;SDS011;70150;45.582;10.178;2023-06-14T11:24:32;7.55;;;3.90;;
80758;SDS011;70150;45.582;10.178;2023-06-14T11:26:57;7.57;;;4.18;;
80758;SDS011;70150;45.582;10.178;2023-06-14T11:29:23;5.90;;;3.70;;
80758;SDS011;70150;45.582;10.178;2023-06-14T11:31:49;7.60;;;3.95;;
80758;SDS011;70150;45.582;10.178;2023-06-14T11:34:15;6.07;;;4.20;;
80758;SDS011;70150;45.582;10.178;2023-06-14T11:36:42;7.35;;;3.70;;
80758;SDS011;70150;45.582;10.178;2023-06-14T11:39:08;3.47;;;3.00;;
80758;SDS011;70150;45.582;10.178;2023-06-14T11:44:06;8.32;;;4.07;;
80758;SDS011;70150;45.582;10.178;2023-06-14T11:46:32;4.72;;;3.55;;
80758;SDS011;70150;45.582;10.178;2023-06-14T11:48:59;4.95;;;3.30;;
80758;SDS011;70150;45.582;10.178;2023-06-14T11:51:28;5.93;;;3.28;;
80758;SDS011;70150;45.582;10.178;2023-06-14T11:53:54;4.03;;;3.00;;
80758;SDS011;70150;45.582;10.178;2023-06-14T11:56:20;4.13;;;3.13;;
80758;SDS011;70150;45.582;10.178;2023-06-14T11:58:46;5.07;;;3.08;;
80758;SDS011;70150;45.582;10.178;2023-06-14T12:06:13;5.95;;;3.33;;
80758;SDS011;70150;45.582;10.178;2023-06-14T12:08:42;3.90;;;2.92;;
80758;SDS011;70150;45.582;10.178;2023-06-14T12:11:12;5.43;;;3.38;;
80758;SDS011;70150;45.582;10.178;2023-06-14T12:13:39;4.20;;;3.05;;
80758;SDS011;70150;45.582;10.178;2023-06-14T12:18:35;4.07;;;2.70;;
80758;SDS011;70150;45.582;10.178;2023-06-14T12:21:03;4.55;;;2.22;;
80758;SDS011;70150;45.582;10.178;2023-06-14T12:26:04;5.90;;;3.25;;
80758;SDS011;70150;45.582;10.178;2023-06-14T12:28:30;3.90;;;2.65;;
80758;SDS011;70150;45.582;10.178;2023-06-14T12:30:56;5.25;;;3.03;;
80758;SDS011;70150;45.582;10.178;2023-06-14T12:33:24;4.57;;;2.85;;
80758;SDS011;70150;45.582;10.178;2023-06-14T12:35:50;3.55;;;2.72;;
80758;SDS011;70150;45.582;10.178;2023-06-14T12:38:18;9.32;;;2.90;;
80758;SDS011;70150;45.582;10.178;2023-06-14T12:40:43;5.82;;;2.90;;
80758;SDS011;70150;45.582;10.178;2023-06-14T12:43:09;3.95;;;2.80;;
80758;SDS011;70150;45.582;10.178;2023-06-14T12:45:34;4.15;;;2.35;;
80758;SDS011;70150;45.582;10.178;2023-06-14T12:48:00;4.75;;;2.90;;
80758;SDS011;70150;45.582;10.178;2023-06-14T12:50:25;4.00;;;2.63;;
80758;SDS011;70150;45.582;10.178;2023-06-14T12:52:51;2.67;;;2.20;;
80758;SDS011;70150;45.582;10.178;2023-06-14T12:55:17;4.75;;;2.58;;
80758;SDS011;70150;45.582;10.178;2023-06-14T12:57:43;5.57;;;3.33;;
80758;SDS011;70150;45.582;10.178;2023-06-14T13:00:09;5.18;;;3.42;;
80758;SDS011;70150;45.582;10.178;2023-06-14T13:02:35;4.43;;;2.63;;
80758;SDS011;70150;45.582;10.178;2023-06-14T13:05:01;6.57;;;3.80;;
80758;SDS011;70150;45.582;10.178;2023-06-14T13:07:28;6.25;;;3.22;;
80758;SDS011;70150;45.582;10.178;2023-06-14T13:09:54;6.78;;;3.40;;
80758;SDS011;70150;45.582;10.178;2023-06-14T13:12:20;6.15;;;3.78;;
80758;SDS011;70150;45.582;10.178;2023-06-14T13:14:45;6.28;;;3.70;;
80758;SDS011;70150;45.582;10.178;2023-06-14T13:17:11;5.30;;;3.40;;
80758;SDS011;70150;45.582;10.178;2023-06-14T13:19:36;10.82;;;4.40;;
80758;SDS011;70150;45.582;10.178;2023-06-14T13:22:05;10.13;;;4.63;;
80758;SDS011;70150;45.582;10.178;2023-06-14T13:24:31;6.68;;;4.10;;
80758;SDS011;70150;45.582;10.178;2023-06-14T13:26:56;8.10;;;4.88;;
80758;SDS011;70150;45.582;10.178;2023-06-14T13:29:23;9.23;;;4.53;;
80758;SDS011;70150;45.582;10.178;2023-06-14T13:31:49;7.43;;;4.10;;
80758;SDS011;70150;45.582;10.178;2023-06-14T13:34:14;7.10;;;3.95;;
80758;SDS011;70150;45.582;10.178;2023-06-14T13:36:40;7.57;;;4.63;;
80758;SDS011;70150;45.582;10.178;2023-06-14T13:39:06;10.45;;;5.35;;
80758;SDS011;70150;45.582;10.178;2023-06-14T13:41:31;8.38;;;5.07;;
80758;SDS011;70150;45.582;10.178;2023-06-14T13:43:59;8.60;;;4.88;;
80758;SDS011;70150;45.582;10.178;2023-06-14T13:46:25;10.93;;;6.30;;
80758;SDS011;70150;45.582;10.178;2023-06-14T13:48:53;9.38;;;5.18;;
80758;SDS011;70150;45.582;10.178;2023-06-14T13:51:19;8.80;;;4.80;;
80758;SDS011;70150;45.582;10.178;2023-06-14T13:56:12;8.23;;;5.78;;
80758;SDS011;70150;45.582;10.178;2023-06-14T13:58:38;7.93;;;4.97;;
80758;SDS011;70150;45.582;10.178;2023-06-14T14:01:03;9.23;;;4.85;;
80758;SDS011;70150;45.582;10.178;2023-06-14T14:03:29;7.50;;;5.32;;
80758;SDS011;70150;45.582;10.178;2023-06-14T14:05:55;10.48;;;6.22;;
80758;SDS011;70150;45.582;10.178;2023-06-14T14:08:21;10.75;;;6.60;;
80758;SDS011;70150;45.582;10.178;2023-06-14T14:10:47;8.88;;;5.90;;
80758;SDS011;70150;45.582;10.178;2023-06-14T14:13:12;10.65;;;6.80;;
80758;SDS011;70150;45.582;10.178;2023-06-14T14:15:38;8.27;;;5.60;;
80758;SDS011;70150;45.582;10.178;2023-06-14T14:18:03;10.10;;;5.47;;
80758;SDS011;70150;45.582;10.178;2023-06-14T14:20:30;9.15;;;5.93;;
80758;SDS011;70150;45.582;10.178;2023-06-14T14:22:56;10.63;;;5.95;;
80758;SDS011;70150;45.582;10.178;2023-06-14T14:25:21;7.05;;;5.10;;
80758;SDS011;70150;45.582;10.178;2023-06-14T14:27:47;9.48;;;6.35;;
80758;SDS011;70150;45.582;10.178;2023-06-14T14:30:13;9.27;;;5.93;;
80758;SDS011;70150;45.582;10.178;2023-06-14T14:32:39;7.88;;;4.80;;
80758;SDS011;70150;45.582;10.178;2023-06-14T14:35:06;10.98;;;6.30;;
80758;SDS011;70150;45.582;10.178;2023-06-14T14:37:32;10.45;;;6.13;;
80758;SDS011;70150;45.582;10.178;2023-06-14T14:39:58;9.65;;;5.45;;
80758;SDS011;70150;45.582;10.178;2023-06-14T14:42:23;11.10;;;5.28;;
80758;SDS011;70150;45.582;10.178;2023-06-14T14:44:51;8.98;;;4.32;;
80758;SDS011;70150;45.582;10.178;2023-06-14T14:47:17;6.18;;;4.38;;
80758;SDS011;70150;45.582;10.178;2023-06-14T14:49:42;7.72;;;4.30;;
80758;SDS011;70150;45.582;10.178;2023-06-14T14:52:08;5.63;;;4.32;;
80758;SDS011;70150;45.582;10.178;2023-06-14T14:54:34;6.63;;;4.00;;
80758;SDS011;70150;45.582;10.178;2023-06-14T14:57:01;8.32;;;3.78;;
80758;SDS011;70150;45.582;10.178;2023-06-14T14:59:27;7.35;;;4.00;;
80758;SDS011;70150;45.582;10.178;2023-06-14T15:01:52;6.47;;;3.53;;
80758;SDS011;70150;45.582;10.178;2023-06-14T15:04:18;9.93;;;3.20;;
80758;SDS011;70150;45.582;10.178;2023-06-14T15:06:44;5.07;;;3.33;;
80758;SDS011;70150;45.582;10.178;2023-06-14T15:09:09;5.60;;;3.20;;
80758;SDS011;70150;45.582;10.178;2023-06-14T15:11:35;5.20;;;3.30;;
80758;SDS011;70150;45.582;10.178;2023-06-14T15:14:00;7.35;;;3.60;;
80758;SDS011;70150;45.582;10.178;2023-06-14T15:16:26;6.07;;;3.20;;
80758;SDS011;70150;45.582;10.178;2023-06-14T15:18:51;5.18;;;3.53;;
80758;SDS011;70150;45.582;10.178;2023-06-14T15:21:17;7.18;;;3.40;;
80758;SDS011;70150;45.582;10.178;2023-06-14T15:26:10;5.07;;;3.08;;
80758;SDS011;70150;45.582;10.178;2023-06-14T15:28:36;8.07;;;3.05;;
80758;SDS011;70150;45.582;10.178;2023-06-14T15:31:01;5.72;;;3.42;;
80758;SDS011;70150;45.582;10.178;2023-06-14T15:33:27;4.80;;;3.25;;